sensor_id;sensor_type;location;lat;lon;timestamp;P1;durP1;ratioP1;P2;durP2;ratioP2
9445;SDS011;4761;49.490;10.908;2023-05-02T00:00:35;3.00;;;2.80;;
9445;SDS011;4761;49.490;10.908;2023-05-02T00:03:00;3.23;;;2.93;;
9445;SDS011;4761;49.490;10.908;2023-05-02T00:05:27;3.30;;;3.00;;
9445;SDS011;4761;49.490;10.908;2023-05-02T00:07:53;3.10;;;2.80;;
9445;SDS011;4761;49.490;10.908;2023-05-02T00:10:18;3.23;;;2.93;;
9445;SDS011;4761;49.490;10.908;2023-05-02T00:12:44;3.07;;;2.77;;
9445;SDS011;4761;49.490;10.908;2023-05-02T00:15:09;3.50;;;2.80;;
9445;SDS011;4761;49.490;10.908;2023-05-02T00:17:35;2.90;;;2.70;;
9445;SDS011;4761;49.490;10.908;2023-05-02T00:20:01;3.30;;;3.00;;
9445;SDS011;4761;49.490;10.908;2023-05-02T00:22:30;3.03;;;2.73;;
9445;SDS011;4761;49.490;10.908;2023-05-02T00:24:56;3.40;;;3.10;;
9445;SDS011;4761;49.490;10.908;2023-05-02T00:27:22;3.53;;;3.03;;
9445;SDS011;4761;49.490;10.908;2023-05-02T00:29:48;3.20;;;3.00;;
9445;SDS011;4761;49.490;10.908;2023-05-02T00:32:13;3.37;;;3.07;;
9445;SDS011;4761;49.490;10.908;2023-05-02T00:34:39;3.50;;;2.83;;
9445;SDS011;4761;49.490;10.908;2023-05-02T00:37:05;3.10;;;2.80;;
9445;SDS011;4761;49.490;10.908;2023-05-02T00:39:32;3.40;;;3.10;;
9445;SDS011;4761;49.490;10.908;2023-05-02T00:41:58;3.40;;;3.10;;
9445;SDS011;4761;49.490;10.908;2023-05-02T00:44:24;2.90;;;2.50;;
9445;SDS011;4761;49.490;10.908;2023-05-02T00:46:50;3.20;;;2.90;;
9445;SDS011;4761;49.490;10.908;2023-05-02T00:49:17;4.93;;;3.00;;
9445;SDS011;4761;49.490;10.908;2023-05-02T00:51:43;4.27;;;3.23;;
9445;SDS011;4761;49.490;10.908;2023-05-02T00:54:08;4.47;;;3.23;;
9445;SDS011;4761;49.490;10.908;2023-05-02T00:56:35;3.07;;;2.80;;
9445;SDS011;4761;49.490;10.908;2023-05-02T00:59:00;3.67;;;3.37;;
9445;SDS011;4761;49.490;10.908;2023-05-02T01:04:29;3.40;;;3.10;;
9445;SDS011;4761;49.490;10.908;2023-05-02T01:07:13;2.77;;;2.57;;
9445;SDS011;4761;49.490;10.908;2023-05-02T01:12:46;3.93;;;2.57;;
9445;SDS011;4761;49.490;10.908;2023-05-02T01:15:24;3.07;;;2.50;;
9445;SDS011;4761;49.490;10.908;2023-05-02T01:17:51;3.00;;;2.80;;
9445;SDS011;4761;49.490;10.908;2023-05-02T01:20:19;3.13;;;2.87;;
9445;SDS011;4761;49.490;10.908;2023-05-02T01:22:47;3.00;;;2.70;;
9445;SDS011;4761;49.490;10.908;2023-05-02T01:27:56;2.90;;;2.60;;
9445;SDS011;4761;49.490;10.908;2023-05-02T01:30:33;3.20;;;2.90;;
9445;SDS011;4761;49.490;10.908;2023-05-02T01:33:01;3.07;;;2.77;;
9445;SDS011;4761;49.490;10.908;2023-05-02T01:35:28;3.00;;;2.50;;
9445;SDS011;4761;49.490;10.908;2023-05-02T01:37:56;2.90;;;2.70;;
9445;SDS011;4761;49.490;10.908;2023-05-02T01:40:25;2.80;;;2.60;;
9445;SDS011;4761;49.490;10.908;2023-05-02T01:42:51;3.00;;;2.80;;
9445;SDS011;4761;49.490;10.908;2023-05-02T01:45:17;3.00;;;2.70;;
9445;SDS011;4761;49.490;10.908;2023-05-02T01:47:45;2.87;;;2.67;;
9445;SDS011;4761;49.490;10.908;2023-05-02T01:50:13;3.10;;;2.83;;
9445;SDS011;4761;49.490;10.908;2023-05-02T01:52:41;2.90;;;2.60;;
9445;SDS011;4761;49.490;10.908;2023-05-02T01:55:11;3.67;;;2.90;;
9445;SDS011;4761;49.490;10.908;2023-05-02T01:57:40;3.40;;;3.10;;
9445;SDS011;4761;49.490;10.908;2023-05-02T02:00:07;3.30;;;2.80;;
9445;SDS011;4761;49.490;10.908;2023-05-02T02:02:34;2.87;;;2.67;;
9445;SDS011;4761;49.490;10.908;2023-05-02T02:05:02;3.20;;;2.90;;
9445;SDS011;4761;49.490;10.908;2023-05-02T02:07:30;4.03;;;2.60;;
9445;SDS011;4761;49.490;10.908;2023-05-02T02:09:56;3.10;;;2.87;;
9445;SDS011;4761;49.490;10.908;2023-05-02T02:12:22;2.80;;;2.40;;
9445;SDS011;4761;49.490;10.908;2023-05-02T02:17:58;3.03;;;2.80;;
9445;SDS011;4761;49.490;10.908;2023-05-02T02:20:25;2.70;;;2.40;;
9445;SDS011;4761;49.490;10.908;2023-05-02T02:22:56;3.00;;;2.70;;
9445;SDS011;4761;49.490;10.908;2023-05-02T02:25:23;3.10;;;2.70;;
9445;SDS011;4761;49.490;10.908;2023-05-02T02:27:50;3.20;;;2.90;;
9445;SDS011;4761;49.490;10.908;2023-05-02T02:30:17;2.23;;;2.13;;
9445;SDS011;4761;49.490;10.908;2023-05-02T02:32:42;2.90;;;2.70;;
9445;SDS011;4761;49.490;10.908;2023-05-02T02:35:08;5.13;;;4.73;;
9445;SDS011;4761;49.490;10.908;2023-05-02T02:40:15;5.43;;;4.93;;
9445;SDS011;4761;49.490;10.908;2023-05-02T02:42:59;5.37;;;4.87;;
9445;SDS011;4761;49.490;10.908;2023-05-02T02:45:55;5.30;;;4.80;;
9445;SDS011;4761;49.490;10.908;2023-05-02T02:48:36;5.37;;;4.87;;
9445;SDS011;4761;49.490;10.908;2023-05-02T02:51:24;4.70;;;4.20;;
9445;SDS011;4761;49.490;10.908;2023-05-02T02:56:35;5.07;;;4.57;;
9445;SDS011;4761;49.490;10.908;2023-05-02T02:59:05;5.07;;;4.57;;
9445;SDS011;4761;49.490;10.908;2023-05-02T03:01:32;5.70;;;4.53;;
9445;SDS011;4761;49.490;10.908;2023-05-02T03:04:00;4.90;;;4.50;;
9445;SDS011;4761;49.490;10.908;2023-05-02T03:06:28;5.07;;;4.57;;
9445;SDS011;4761;49.490;10.908;2023-05-02T03:08:53;4.80;;;4.33;;
9445;SDS011;4761;49.490;10.908;2023-05-02T03:11:19;4.90;;;4.40;;
9445;SDS011;4761;49.490;10.908;2023-05-02T03:13:44;4.83;;;4.40;;
9445;SDS011;4761;49.490;10.908;2023-05-02T03:16:18;5.27;;;4.77;;
9445;SDS011;4761;49.490;10.908;2023-05-02T03:18:56;4.93;;;4.53;;
9445;SDS011;4761;49.490;10.908;2023-05-02T03:21:22;4.60;;;4.20;;
9445;SDS011;4761;49.490;10.908;2023-05-02T03:23:47;4.97;;;4.57;;
9445;SDS011;4761;49.490;10.908;2023-05-02T03:26:13;5.00;;;4.57;;
9445;SDS011;4761;49.490;10.908;2023-05-02T03:28:38;5.10;;;4.60;;
9445;SDS011;4761;49.490;10.908;2023-05-02T03:31:04;4.53;;;4.13;;
9445;SDS011;4761;49.490;10.908;2023-05-02T03:33:30;4.67;;;4.27;;
9445;SDS011;4761;49.490;10.908;2023-05-02T03:35:56;4.93;;;4.43;;
9445;SDS011;4761;49.490;10.908;2023-05-02T03:38:22;4.50;;;4.10;;
9445;SDS011;4761;49.490;10.908;2023-05-02T03:40:47;4.63;;;4.23;;
9445;SDS011;4761;49.490;10.908;2023-05-02T03:43:13;4.83;;;4.43;;
9445;SDS011;4761;49.490;10.908;2023-05-02T03:45:38;5.17;;;4.67;;
9445;SDS011;4761;49.490;10.908;2023-05-02T03:48:04;5.07;;;4.57;;
9445;SDS011;4761;49.490;10.908;2023-05-02T03:50:30;5.13;;;4.73;;
9445;SDS011;4761;49.490;10.908;2023-05-02T03:52:56;5.00;;;4.50;;
9445;SDS011;4761;49.490;10.908;2023-05-02T03:55:21;5.30;;;4.80;;
9445;SDS011;4761;49.490;10.908;2023-05-02T03:57:47;5.80;;;5.30;;
9445;SDS011;4761;49.490;10.908;2023-05-02T04:00:13;5.00;;;4.50;;
9445;SDS011;4761;49.490;10.908;2023-05-02T04:02:38;5.43;;;4.93;;
9445;SDS011;4761;49.490;10.908;2023-05-02T04:05:04;4.63;;;4.23;;
9445;SDS011;4761;49.490;10.908;2023-05-02T04:07:30;4.80;;;4.40;;
9445;SDS011;4761;49.490;10.908;2023-05-02T04:09:56;4.47;;;4.07;;
9445;SDS011;4761;49.490;10.908;2023-05-02T04:12:21;5.40;;;4.27;;
9445;SDS011;4761;49.490;10.908;2023-05-02T04:14:47;5.20;;;4.70;;
9445;SDS011;4761;49.490;10.908;2023-05-02T04:17:12;7.17;;;5.10;;
9445;SDS011;4761;49.490;10.908;2023-05-02T04:19:39;6.53;;;5.27;;
9445;SDS011;4761;49.490;10.908;2023-05-02T04:22:05;5.07;;;4.67;;
9445;SDS011;4761;49.490;10.908;2023-05-02T04:24:30;4.43;;;4.03;;
9445;SDS011;4761;49.490;10.908;2023-05-02T04:26:56;3.97;;;3.67;;
9445;SDS011;4761;49.490;10.908;2023-05-02T04:29:21;4.10;;;3.80;;
9445;SDS011;4761;49.490;10.908;2023-05-02T04:31:47;4.10;;;3.80;;
9445;SDS011;4761;49.490;10.908;2023-05-02T04:34:13;4.43;;;4.03;;
9445;SDS011;4761;49.490;10.908;2023-05-02T04:36:38;4.73;;;4.33;;
9445;SDS011;4761;49.490;10.908;2023-05-02T04:39:04;4.53;;;4.13;;
9445;SDS011;4761;49.490;10.908;2023-05-02T04:41:31;4.90;;;4.50;;
9445;SDS011;4761;49.490;10.908;2023-05-02T04:43:58;4.67;;;4.27;;
9445;SDS011;4761;49.490;10.908;2023-05-02T04:46:23;4.97;;;4.40;;
9445;SDS011;4761;49.490;10.908;2023-05-02T04:48:49;8.13;;;5.03;;
9445;SDS011;4761;49.490;10.908;2023-05-02T04:51:14;4.80;;;4.37;;
9445;SDS011;4761;49.490;10.908;2023-05-02T04:53:40;4.53;;;4.13;;
9445;SDS011;4761;49.490;10.908;2023-05-02T04:56:05;4.70;;;4.20;;
9445;SDS011;4761;49.490;10.908;2023-05-02T04:58:31;4.70;;;4.30;;
9445;SDS011;4761;49.490;10.908;2023-05-02T05:00:59;2.43;;;2.23;;
9445;SDS011;4761;49.490;10.908;2023-05-02T05:03:25;2.37;;;2.17;;
9445;SDS011;4761;49.490;10.908;2023-05-02T05:05:52;2.60;;;2.40;;
9445;SDS011;4761;49.490;10.908;2023-05-02T05:08:17;2.57;;;2.37;;
9445;SDS011;4761;49.490;10.908;2023-05-02T05:10:43;3.07;;;2.77;;
9445;SDS011;4761;49.490;10.908;2023-05-02T05:13:08;2.97;;;2.60;;
9445;SDS011;4761;49.490;10.908;2023-05-02T05:15:36;2.93;;;2.47;;
9445;SDS011;4761;49.490;10.908;2023-05-02T05:18:02;7.80;;;5.90;;
9445;SDS011;4761;49.490;10.908;2023-05-02T05:20:28;6.90;;;6.20;;
9445;SDS011;4761;49.490;10.908;2023-05-02T05:22:53;7.17;;;6.13;;
9445;SDS011;4761;49.490;10.908;2023-05-02T05:25:19;7.37;;;6.07;;
9445;SDS011;4761;49.490;10.908;2023-05-02T05:27:44;7.23;;;6.10;;
9445;SDS011;4761;49.490;10.908;2023-05-02T05:30:10;7.77;;;6.00;;
9445;SDS011;4761;49.490;10.908;2023-05-02T05:32:36;7.83;;;5.80;;
9445;SDS011;4761;49.490;10.908;2023-05-02T05:35:01;5.33;;;4.73;;
9445;SDS011;4761;49.490;10.908;2023-05-02T05:37:28;5.17;;;4.67;;
9445;SDS011;4761;49.490;10.908;2023-05-02T05:39:54;5.87;;;5.27;;
9445;SDS011;4761;49.490;10.908;2023-05-02T05:42:19;6.50;;;5.17;;
9445;SDS011;4761;49.490;10.908;2023-05-02T05:44:45;5.40;;;4.93;;
9445;SDS011;4761;49.490;10.908;2023-05-02T05:47:10;5.80;;;5.30;;
9445;SDS011;4761;49.490;10.908;2023-05-02T05:49:36;5.80;;;5.30;;
9445;SDS011;4761;49.490;10.908;2023-05-02T05:52:01;5.70;;;5.20;;
9445;SDS011;4761;49.490;10.908;2023-05-02T05:54:27;6.23;;;5.37;;
9445;SDS011;4761;49.490;10.908;2023-05-02T05:56:52;6.00;;;5.40;;
9445;SDS011;4761;49.490;10.908;2023-05-02T05:59:18;6.50;;;5.87;;
9445;SDS011;4761;49.490;10.908;2023-05-02T06:01:43;5.77;;;5.27;;
9445;SDS011;4761;49.490;10.908;2023-05-02T06:04:09;5.50;;;5.00;;
9445;SDS011;4761;49.490;10.908;2023-05-02T06:06:35;5.80;;;5.20;;
9445;SDS011;4761;49.490;10.908;2023-05-02T06:09:00;6.30;;;5.80;;
9445;SDS011;4761;49.490;10.908;2023-05-02T06:11:26;6.07;;;5.47;;
9445;SDS011;4761;49.490;10.908;2023-05-02T06:13:52;6.43;;;5.90;;
9445;SDS011;4761;49.490;10.908;2023-05-02T06:16:18;7.13;;;6.43;;
9445;SDS011;4761;49.490;10.908;2023-05-02T06:18:44;7.30;;;6.60;;
9445;SDS011;4761;49.490;10.908;2023-05-02T06:21:10;6.77;;;6.03;;
9445;SDS011;4761;49.490;10.908;2023-05-02T06:23:36;6.27;;;5.33;;
9445;SDS011;4761;49.490;10.908;2023-05-02T06:26:02;6.20;;;5.63;;
9445;SDS011;4761;49.490;10.908;2023-05-02T06:28:29;6.27;;;5.10;;
9445;SDS011;4761;49.490;10.908;2023-05-02T06:31:02;6.27;;;5.67;;
9445;SDS011;4761;49.490;10.908;2023-05-02T06:33:29;5.60;;;5.10;;
9445;SDS011;4761;49.490;10.908;2023-05-02T06:35:56;6.60;;;5.83;;
9445;SDS011;4761;49.490;10.908;2023-05-02T06:38:22;6.00;;;5.40;;
9445;SDS011;4761;49.490;10.908;2023-05-02T06:40:48;5.47;;;4.97;;
9445;SDS011;4761;49.490;10.908;2023-05-02T06:43:15;5.77;;;5.10;;
9445;SDS011;4761;49.490;10.908;2023-05-02T06:45:41;6.23;;;5.57;;
9445;SDS011;4761;49.490;10.908;2023-05-02T06:48:07;5.80;;;5.30;;
9445;SDS011;4761;49.490;10.908;2023-05-02T06:50:33;5.80;;;5.30;;
9445;SDS011;4761;49.490;10.908;2023-05-02T06:52:59;7.33;;;5.50;;
9445;SDS011;4761;49.490;10.908;2023-05-02T06:55:25;5.70;;;5.20;;
9445;SDS011;4761;49.490;10.908;2023-05-02T06:57:51;6.13;;;5.53;;
9445;SDS011;4761;49.490;10.908;2023-05-02T07:00:17;5.63;;;5.23;;
9445;SDS011;4761;49.490;10.908;2023-05-02T07:02:43;5.87;;;5.37;;
9445;SDS011;4761;49.490;10.908;2023-05-02T07:05:13;5.70;;;5.17;;
9445;SDS011;4761;49.490;10.908;2023-05-02T07:07:42;5.93;;;5.43;;
9445;SDS011;4761;49.490;10.908;2023-05-02T07:10:08;5.73;;;5.00;;
9445;SDS011;4761;49.490;10.908;2023-05-02T07:12:35;6.10;;;5.20;;
9445;SDS011;4761;49.490;10.908;2023-05-02T07:15:01;6.40;;;5.30;;
9445;SDS011;4761;49.490;10.908;2023-05-02T07:17:26;6.23;;;5.33;;
9445;SDS011;4761;49.490;10.908;2023-05-02T07:19:52;5.60;;;5.10;;
9445;SDS011;4761;49.490;10.908;2023-05-02T07:22:18;5.27;;;4.77;;
9445;SDS011;4761;49.490;10.908;2023-05-02T07:24:44;5.30;;;4.90;;
9445;SDS011;4761;49.490;10.908;2023-05-02T07:27:10;5.70;;;5.10;;
9445;SDS011;4761;49.490;10.908;2023-05-02T07:29:36;5.07;;;4.67;;
9445;SDS011;4761;49.490;10.908;2023-05-02T07:32:03;4.93;;;4.53;;
9445;SDS011;4761;49.490;10.908;2023-05-02T07:34:29;4.80;;;4.40;;
9445;SDS011;4761;49.490;10.908;2023-05-02T07:36:54;4.43;;;4.03;;
9445;SDS011;4761;49.490;10.908;2023-05-02T07:39:20;4.57;;;4.17;;
9445;SDS011;4761;49.490;10.908;2023-05-02T07:41:49;5.03;;;4.40;;
9445;SDS011;4761;49.490;10.908;2023-05-02T07:44:18;4.30;;;3.90;;
9445;SDS011;4761;49.490;10.908;2023-05-02T07:46:44;4.40;;;4.00;;
9445;SDS011;4761;49.490;10.908;2023-05-02T07:49:09;4.07;;;3.77;;
9445;SDS011;4761;49.490;10.908;2023-05-02T07:51:35;4.50;;;4.10;;
9445;SDS011;4761;49.490;10.908;2023-05-02T07:54:00;3.90;;;3.60;;
9445;SDS011;4761;49.490;10.908;2023-05-02T07:56:26;4.00;;;3.70;;
9445;SDS011;4761;49.490;10.908;2023-05-02T07:58:52;4.07;;;3.73;;
9445;SDS011;4761;49.490;10.908;2023-05-02T08:01:17;2.30;;;2.10;;
9445;SDS011;4761;49.490;10.908;2023-05-02T08:03:44;2.20;;;2.00;;
9445;SDS011;4761;49.490;10.908;2023-05-02T08:06:10;2.10;;;1.90;;
9445;SDS011;4761;49.490;10.908;2023-05-02T08:08:37;2.67;;;2.23;;
9445;SDS011;4761;49.490;10.908;2023-05-02T08:11:02;2.17;;;1.97;;
9445;SDS011;4761;49.490;10.908;2023-05-02T08:13:28;2.03;;;1.80;;
9445;SDS011;4761;49.490;10.908;2023-05-02T08:15:54;1.70;;;1.60;;
9445;SDS011;4761;49.490;10.908;2023-05-02T08:18:22;2.33;;;2.00;;
9445;SDS011;4761;49.490;10.908;2023-05-02T08:20:49;2.10;;;1.90;;
9445;SDS011;4761;49.490;10.908;2023-05-02T08:23:15;2.17;;;1.80;;
9445;SDS011;4761;49.490;10.908;2023-05-02T08:25:40;2.27;;;2.00;;
9445;SDS011;4761;49.490;10.908;2023-05-02T08:28:06;2.20;;;2.03;;
9445;SDS011;4761;49.490;10.908;2023-05-02T08:30:31;2.20;;;2.00;;
9445;SDS011;4761;49.490;10.908;2023-05-02T08:32:57;1.77;;;1.67;;
9445;SDS011;4761;49.490;10.908;2023-05-02T08:35:22;2.10;;;1.90;;
9445;SDS011;4761;49.490;10.908;2023-05-02T08:37:48;1.80;;;1.70;;
9445;SDS011;4761;49.490;10.908;2023-05-02T08:40:13;1.97;;;1.80;;
9445;SDS011;4761;49.490;10.908;2023-05-02T08:42:42;2.13;;;1.93;;
9445;SDS011;4761;49.490;10.908;2023-05-02T08:45:08;2.10;;;2.00;;
9445;SDS011;4761;49.490;10.908;2023-05-02T08:47:37;2.63;;;1.80;;
9445;SDS011;4761;49.490;10.908;2023-05-02T08:50:04;2.20;;;2.00;;
9445;SDS011;4761;49.490;10.908;2023-05-02T08:52:31;1.70;;;1.60;;
9445;SDS011;4761;49.490;10.908;2023-05-02T08:54:58;1.90;;;1.80;;
9445;SDS011;4761;49.490;10.908;2023-05-02T08:57:29;1.70;;;1.60;;
9445;SDS011;4761;49.490;10.908;2023-05-02T08:59:55;1.73;;;1.63;;
9445;SDS011;4761;49.490;10.908;2023-05-02T09:02:33;2.30;;;2.03;;
9445;SDS011;4761;49.490;10.908;2023-05-02T09:05:04;2.30;;;2.00;;
9445;SDS011;4761;49.490;10.908;2023-05-02T09:07:44;1.83;;;1.73;;
9445;SDS011;4761;49.490;10.908;2023-05-02T09:10:11;2.10;;;1.80;;
9445;SDS011;4761;49.490;10.908;2023-05-02T09:12:37;1.80;;;1.70;;
9445;SDS011;4761;49.490;10.908;2023-05-02T09:15:13;2.20;;;1.93;;
9445;SDS011;4761;49.490;10.908;2023-05-02T09:17:43;1.90;;;1.70;;
9445;SDS011;4761;49.490;10.908;2023-05-02T09:20:11;1.83;;;1.73;;
9445;SDS011;4761;49.490;10.908;2023-05-02T09:22:37;1.73;;;1.63;;
9445;SDS011;4761;49.490;10.908;2023-05-02T09:25:06;1.70;;;1.60;;
9445;SDS011;4761;49.490;10.908;2023-05-02T09:30:17;2.40;;;1.80;;
9445;SDS011;4761;49.490;10.908;2023-05-02T09:32:45;2.50;;;2.13;;
9445;SDS011;4761;49.490;10.908;2023-05-02T09:35:12;1.87;;;1.70;;
9445;SDS011;4761;49.490;10.908;2023-05-02T09:37:38;3.70;;;1.80;;
9445;SDS011;4761;49.490;10.908;2023-05-02T09:40:04;2.00;;;1.80;;
9445;SDS011;4761;49.490;10.908;2023-05-02T09:42:30;3.87;;;2.30;;
9445;SDS011;4761;49.490;10.908;2023-05-02T09:44:56;2.10;;;1.90;;
9445;SDS011;4761;49.490;10.908;2023-05-02T09:47:23;2.47;;;2.00;;
9445;SDS011;4761;49.490;10.908;2023-05-02T09:49:50;2.90;;;1.90;;
9445;SDS011;4761;49.490;10.908;2023-05-02T09:52:17;1.93;;;1.83;;
9445;SDS011;4761;49.490;10.908;2023-05-02T09:54:45;2.33;;;1.93;;
9445;SDS011;4761;49.490;10.908;2023-05-02T09:57:11;2.07;;;1.80;;
9445;SDS011;4761;49.490;10.908;2023-05-02T09:59:39;2.10;;;1.90;;
9445;SDS011;4761;49.490;10.908;2023-05-02T10:02:05;2.40;;;1.90;;
9445;SDS011;4761;49.490;10.908;2023-05-02T10:04:33;1.87;;;1.77;;
9445;SDS011;4761;49.490;10.908;2023-05-02T10:07:00;3.30;;;2.10;;
9445;SDS011;4761;49.490;10.908;2023-05-02T10:09:27;3.03;;;2.00;;
9445;SDS011;4761;49.490;10.908;2023-05-02T10:11:56;2.83;;;1.90;;
9445;SDS011;4761;49.490;10.908;2023-05-02T10:14:27;1.80;;;1.70;;
9445;SDS011;4761;49.490;10.908;2023-05-02T10:16:56;1.80;;;1.70;;
9445;SDS011;4761;49.490;10.908;2023-05-02T10:19:29;2.40;;;2.20;;
9445;SDS011;4761;49.490;10.908;2023-05-02T10:22:09;2.57;;;1.90;;
9445;SDS011;4761;49.490;10.908;2023-05-02T10:24:37;2.10;;;1.90;;
9445;SDS011;4761;49.490;10.908;2023-05-02T10:27:03;2.90;;;2.27;;
9445;SDS011;4761;49.490;10.908;2023-05-02T10:29:30;2.53;;;2.00;;
9445;SDS011;4761;49.490;10.908;2023-05-02T10:31:56;2.97;;;1.90;;
9445;SDS011;4761;49.490;10.908;2023-05-02T10:34:24;3.63;;;2.00;;
9445;SDS011;4761;49.490;10.908;2023-05-02T10:36:51;2.67;;;2.10;;
9445;SDS011;4761;49.490;10.908;2023-05-02T10:39:19;1.77;;;1.67;;
9445;SDS011;4761;49.490;10.908;2023-05-02T10:41:48;3.40;;;2.00;;
9445;SDS011;4761;49.490;10.908;2023-05-02T10:44:17;4.27;;;2.07;;
9445;SDS011;4761;49.490;10.908;2023-05-02T10:47:19;2.00;;;1.80;;
9445;SDS011;4761;49.490;10.908;2023-05-02T10:49:49;1.87;;;1.60;;
9445;SDS011;4761;49.490;10.908;2023-05-02T10:52:27;2.87;;;1.80;;
9445;SDS011;4761;49.490;10.908;2023-05-02T11:00:23;2.23;;;1.83;;
9445;SDS011;4761;49.490;10.908;2023-05-02T11:02:56;2.43;;;1.90;;
9445;SDS011;4761;49.490;10.908;2023-05-02T11:05:22;1.57;;;1.47;;
9445;SDS011;4761;49.490;10.908;2023-05-02T11:07:48;1.80;;;1.70;;
9445;SDS011;4761;49.490;10.908;2023-05-02T11:12:49;1.87;;;1.77;;
9445;SDS011;4761;49.490;10.908;2023-05-02T11:18:00;3.43;;;2.43;;
9445;SDS011;4761;49.490;10.908;2023-05-02T11:20:27;3.63;;;2.30;;
9445;SDS011;4761;49.490;10.908;2023-05-02T11:22:54;2.30;;;2.10;;
9445;SDS011;4761;49.490;10.908;2023-05-02T11:25:36;2.60;;;2.10;;
9445;SDS011;4761;49.490;10.908;2023-05-02T11:28:03;2.27;;;2.07;;
9445;SDS011;4761;49.490;10.908;2023-05-02T11:30:37;2.57;;;2.37;;
9445;SDS011;4761;49.490;10.908;2023-05-02T11:35:29;3.73;;;2.27;;
9445;SDS011;4761;49.490;10.908;2023-05-02T11:37:59;2.80;;;2.50;;
9445;SDS011;4761;49.490;10.908;2023-05-02T11:40:28;4.03;;;2.30;;
9445;SDS011;4761;49.490;10.908;2023-05-02T11:42:55;2.83;;;2.50;;
9445;SDS011;4761;49.490;10.908;2023-05-02T11:45:35;2.97;;;2.50;;
9445;SDS011;4761;49.490;10.908;2023-05-02T11:48:03;4.93;;;2.70;;
9445;SDS011;4761;49.490;10.908;2023-05-02T11:50:30;2.73;;;2.50;;
9445;SDS011;4761;49.490;10.908;2023-05-02T11:52:57;3.17;;;2.60;;
9445;SDS011;4761;49.490;10.908;2023-05-02T11:55:22;2.67;;;2.43;;
9445;SDS011;4761;49.490;10.908;2023-05-02T11:57:48;3.60;;;2.40;;
9445;SDS011;4761;49.490;10.908;2023-05-02T12:00:14;2.77;;;2.40;;
9445;SDS011;4761;49.490;10.908;2023-05-02T12:02:41;3.30;;;3.00;;
9445;SDS011;4761;49.490;10.908;2023-05-02T12:05:11;4.07;;;3.07;;
9445;SDS011;4761;49.490;10.908;2023-05-02T12:07:42;4.07;;;3.20;;
9445;SDS011;4761;49.490;10.908;2023-05-02T12:10:09;3.97;;;2.83;;
9445;SDS011;4761;49.490;10.908;2023-05-02T12:12:35;5.07;;;2.60;;
9445;SDS011;4761;49.490;10.908;2023-05-02T12:15:06;11.43;;;2.73;;
9445;SDS011;4761;49.490;10.908;2023-05-02T12:17:36;6.17;;;2.43;;
9445;SDS011;4761;49.490;10.908;2023-05-02T12:20:05;9.93;;;2.40;;
9445;SDS011;4761;49.490;10.908;2023-05-02T12:22:32;7.80;;;2.60;;
9445;SDS011;4761;49.490;10.908;2023-05-02T12:24:59;5.80;;;2.23;;
9445;SDS011;4761;49.490;10.908;2023-05-02T12:27:25;9.87;;;2.80;;
9445;SDS011;4761;49.490;10.908;2023-05-02T12:29:51;4.70;;;2.70;;
9445;SDS011;4761;49.490;10.908;2023-05-02T12:32:26;4.33;;;2.40;;
9445;SDS011;4761;49.490;10.908;2023-05-02T12:34:53;10.33;;;2.50;;
9445;SDS011;4761;49.490;10.908;2023-05-02T12:37:23;9.63;;;2.50;;
9445;SDS011;4761;49.490;10.908;2023-05-02T12:39:49;4.27;;;2.33;;
9445;SDS011;4761;49.490;10.908;2023-05-02T12:42:16;10.73;;;2.30;;
9445;SDS011;4761;49.490;10.908;2023-05-02T12:44:44;2.93;;;2.13;;
9445;SDS011;4761;49.490;10.908;2023-05-02T12:47:14;6.00;;;2.23;;
9445;SDS011;4761;49.490;10.908;2023-05-02T12:52:19;5.53;;;1.80;;
9445;SDS011;4761;49.490;10.908;2023-05-02T12:54:45;2.67;;;1.97;;
9445;SDS011;4761;49.490;10.908;2023-05-02T12:57:23;5.90;;;2.10;;
9445;SDS011;4761;49.490;10.908;2023-05-02T12:59:53;5.20;;;2.37;;
9445;SDS011;4761;49.490;10.908;2023-05-02T13:02:19;2.43;;;1.80;;
9445;SDS011;4761;49.490;10.908;2023-05-02T13:04:45;2.43;;;1.63;;
9445;SDS011;4761;49.490;10.908;2023-05-02T13:07:11;2.80;;;1.70;;
9445;SDS011;4761;49.490;10.908;2023-05-02T13:09:36;3.17;;;1.80;;
9445;SDS011;4761;49.490;10.908;2023-05-02T13:12:02;3.43;;;1.90;;
9445;SDS011;4761;49.490;10.908;2023-05-02T13:14:28;4.83;;;1.83;;
9445;SDS011;4761;49.490;10.908;2023-05-02T13:16:54;2.80;;;1.70;;
9445;SDS011;4761;49.490;10.908;2023-05-02T13:19:20;3.63;;;1.67;;
9445;SDS011;4761;49.490;10.908;2023-05-02T13:21:46;3.07;;;1.60;;
9445;SDS011;4761;49.490;10.908;2023-05-02T13:24:11;3.43;;;2.17;;
9445;SDS011;4761;49.490;10.908;2023-05-02T13:26:37;3.20;;;2.00;;
9445;SDS011;4761;49.490;10.908;2023-05-02T13:29:03;2.87;;;2.10;;
9445;SDS011;4761;49.490;10.908;2023-05-02T13:31:28;5.50;;;2.60;;
9445;SDS011;4761;49.490;10.908;2023-05-02T13:33:54;3.17;;;2.40;;
9445;SDS011;4761;49.490;10.908;2023-05-02T13:36:19;4.67;;;2.50;;
9445;SDS011;4761;49.490;10.908;2023-05-02T13:38:45;3.43;;;2.50;;
9445;SDS011;4761;49.490;10.908;2023-05-02T13:41:10;5.37;;;2.93;;
9445;SDS011;4761;49.490;10.908;2023-05-02T13:43:36;4.43;;;2.60;;
9445;SDS011;4761;49.490;10.908;2023-05-02T13:46:03;4.37;;;2.43;;
9445;SDS011;4761;49.490;10.908;2023-05-02T13:48:28;4.00;;;2.43;;
9445;SDS011;4761;49.490;10.908;2023-05-02T13:50:54;3.70;;;2.50;;
9445;SDS011;4761;49.490;10.908;2023-05-02T13:53:19;4.03;;;2.40;;
9445;SDS011;4761;49.490;10.908;2023-05-02T13:55:45;5.30;;;2.37;;
9445;SDS011;4761;49.490;10.908;2023-05-02T13:58:11;3.67;;;2.50;;
9445;SDS011;4761;49.490;10.908;2023-05-02T14:00:36;3.67;;;2.40;;
9445;SDS011;4761;49.490;10.908;2023-05-02T14:03:02;3.43;;;2.20;;
9445;SDS011;4761;49.490;10.908;2023-05-02T14:05:27;3.07;;;2.33;;
9445;SDS011;4761;49.490;10.908;2023-05-02T14:07:53;2.30;;;2.10;;
9445;SDS011;4761;49.490;10.908;2023-05-02T14:10:18;2.43;;;2.00;;
9445;SDS011;4761;49.490;10.908;2023-05-02T14:12:44;3.57;;;2.37;;
9445;SDS011;4761;49.490;10.908;2023-05-02T14:15:10;3.87;;;2.10;;
9445;SDS011;4761;49.490;10.908;2023-05-02T14:17:36;3.63;;;2.30;;
9445;SDS011;4761;49.490;10.908;2023-05-02T14:20:01;2.60;;;2.00;;
9445;SDS011;4761;49.490;10.908;2023-05-02T14:22:27;3.20;;;2.60;;
9445;SDS011;4761;49.490;10.908;2023-05-02T14:24:53;3.57;;;2.60;;
9445;SDS011;4761;49.490;10.908;2023-05-02T14:27:18;2.87;;;2.30;;
9445;SDS011;4761;49.490;10.908;2023-05-02T14:29:44;2.70;;;2.00;;
9445;SDS011;4761;49.490;10.908;2023-05-02T14:32:10;2.83;;;2.23;;
9445;SDS011;4761;49.490;10.908;2023-05-02T14:34:37;2.73;;;1.90;;
9445;SDS011;4761;49.490;10.908;2023-05-02T14:37:02;3.23;;;2.33;;
9445;SDS011;4761;49.490;10.908;2023-05-02T14:39:28;2.43;;;1.87;;
9445;SDS011;4761;49.490;10.908;2023-05-02T14:41:53;3.27;;;2.10;;
9445;SDS011;4761;49.490;10.908;2023-05-02T14:44:19;1.97;;;1.77;;
9445;SDS011;4761;49.490;10.908;2023-05-02T14:46:44;2.83;;;1.90;;
9445;SDS011;4761;49.490;10.908;2023-05-02T14:49:10;2.23;;;1.93;;
9445;SDS011;4761;49.490;10.908;2023-05-02T14:51:36;2.03;;;1.70;;
9445;SDS011;4761;49.490;10.908;2023-05-02T14:54:03;2.40;;;1.90;;
9445;SDS011;4761;49.490;10.908;2023-05-02T14:56:30;2.23;;;1.67;;
9445;SDS011;4761;49.490;10.908;2023-05-02T14:58:56;2.20;;;1.70;;
9445;SDS011;4761;49.490;10.908;2023-05-02T15:01:21;1.77;;;1.60;;
9445;SDS011;4761;49.490;10.908;2023-05-02T15:03:47;2.60;;;1.77;;
9445;SDS011;4761;49.490;10.908;2023-05-02T15:06:14;2.63;;;1.90;;
9445;SDS011;4761;49.490;10.908;2023-05-02T15:08:40;3.03;;;1.83;;
9445;SDS011;4761;49.490;10.908;2023-05-02T15:11:07;1.90;;;1.70;;
9445;SDS011;4761;49.490;10.908;2023-05-02T15:13:34;2.47;;;1.93;;
9445;SDS011;4761;49.490;10.908;2023-05-02T15:16:01;2.23;;;1.87;;
9445;SDS011;4761;49.490;10.908;2023-05-02T15:18:26;1.87;;;1.60;;
9445;SDS011;4761;49.490;10.908;2023-05-02T15:20:52;2.13;;;1.77;;
9445;SDS011;4761;49.490;10.908;2023-05-02T15:23:17;2.20;;;1.60;;
9445;SDS011;4761;49.490;10.908;2023-05-02T15:25:43;2.87;;;1.60;;
9445;SDS011;4761;49.490;10.908;2023-05-02T15:28:08;2.43;;;1.80;;
9445;SDS011;4761;49.490;10.908;2023-05-02T15:30:34;1.80;;;1.70;;
9445;SDS011;4761;49.490;10.908;2023-05-02T15:33:00;1.73;;;1.57;;
9445;SDS011;4761;49.490;10.908;2023-05-02T15:35:26;2.10;;;1.87;;